Airfield :
LOGIN :

Register | Disclaimer

   EN    FR    IT 

 










Legend :    VFR   Marginal VFR   IFR   Intensive IFR   Very Intensive IFR
Visi :
Ceiling :
>= 8 km
>= 3000ft
5 to 8 km
1000 to 3000 ft
1500m to 5 km
500 to 1000 ft
800 to 1500m
200 to 500 ft
< 800m
< 200 ft
Symbols :   Thunderstorms  Fog  Heavy snow  Heavy precipitations  Wind > 20 kt
SIGMETs :     Misc.  Thunderstorms  Icing  Turbulence  Mountain Waves  Volcanic Ashes






- Airport Elevation : 138 ft
- IATA code : BIO


LEBB - Bilbao

CURRENT METAR :
  • 191800Z 00000KT CAVOK 12/07 Q1028 NOSIG

EXPIRED METARs :
  • 191730Z VRB02KT CAVOK 14/07 Q1029 NOSIG
  • 191700Z 05006KT 010V080 CAVOK 15/07 Q1029 NOSIG
  • 191630Z VRB02KT CAVOK 16/05 Q1029 NOSIG
  • 191600Z VRB02KT CAVOK 16/05 Q1029 NOSIG
  • 191530Z 00000KT CAVOK 16/05 Q1029 NOSIG

TAF TAF LEBB
Valid from the 19 at 18:00 until the 20 at 18:00 UTC


191700Z 1918/2018 12005KT CAVOK TX16/2014Z TN04/2006Z
BECMG 2010/2012 30010KT



MET'MAP, your aeronautical weather chart ! - Copyright ORBIFLY December 2007 - Disclaimer

ORBIFLY MET'MAP TEAM :

Programming & Development : Alexandra Zaïnal
Concept & original design : Baudouin d'Aumeries
Assistance for programming : Marc-Olivier Méhu
Technical & hardware support : Manuel Goepfert

Contact : metmap@orbifly.com




SOURCES & CREDITS :

   NOAA